sensor_id;sensor_type;location;lat;lon;timestamp;P1;durP1;ratioP1;P2;durP2;ratioP2
51459;SDS011;37534;39.772;2.718;2023-02-28T00:00:47;7.70;;;3.53;;
51459;SDS011;37534;39.772;2.718;2023-02-28T00:03:13;7.13;;;3.45;;
51459;SDS011;37534;39.772;2.718;2023-02-28T00:05:38;4.78;;;2.90;;
51459;SDS011;37534;39.772;2.718;2023-02-28T00:08:04;4.22;;;2.28;;
51459;SDS011;37534;39.772;2.718;2023-02-28T00:10:30;4.38;;;2.25;;
51459;SDS011;37534;39.772;2.718;2023-02-28T00:12:59;3.53;;;2.78;;
51459;SDS011;37534;39.772;2.718;2023-02-28T00:15:27;7.15;;;3.80;;
51459;SDS011;37534;39.772;2.718;2023-02-28T00:17:53;5.90;;;3.33;;
51459;SDS011;37534;39.772;2.718;2023-02-28T00:20:19;13.20;;;10.10;;
51459;SDS011;37534;39.772;2.718;2023-02-28T00:22:45;6.88;;;3.40;;
51459;SDS011;37534;39.772;2.718;2023-02-28T00:25:15;15.50;;;3.30;;
51459;SDS011;37534;39.772;2.718;2023-02-28T00:27:43;8.23;;;3.75;;
51459;SDS011;37534;39.772;2.718;2023-02-28T00:30:12;9.77;;;3.63;;
51459;SDS011;37534;39.772;2.718;2023-02-28T00:32:40;7.60;;;3.75;;
51459;SDS011;37534;39.772;2.718;2023-02-28T00:35:06;3.33;;;3.00;;
51459;SDS011;37534;39.772;2.718;2023-02-28T00:37:33;20.10;;;4.47;;
51459;SDS011;37534;39.772;2.718;2023-02-28T00:39:59;4.38;;;3.17;;
51459;SDS011;37534;39.772;2.718;2023-02-28T00:42:25;4.70;;;2.90;;
51459;SDS011;37534;39.772;2.718;2023-02-28T00:44:50;6.03;;;4.05;;
51459;SDS011;37534;39.772;2.718;2023-02-28T00:47:16;8.68;;;3.65;;
51459;SDS011;37534;39.772;2.718;2023-02-28T00:49:41;13.13;;;3.70;;
51459;SDS011;37534;39.772;2.718;2023-02-28T00:52:07;5.90;;;3.35;;
51459;SDS011;37534;39.772;2.718;2023-02-28T00:54:33;10.27;;;4.00;;
51459;SDS011;37534;39.772;2.718;2023-02-28T00:56:58;5.50;;;3.17;;
51459;SDS011;37534;39.772;2.718;2023-02-28T00:59:24;13.90;;;4.03;;
51459;SDS011;37534;39.772;2.718;2023-02-28T01:01:50;6.90;;;3.45;;
51459;SDS011;37534;39.772;2.718;2023-02-28T01:04:16;6.05;;;3.90;;
51459;SDS011;37534;39.772;2.718;2023-02-28T01:06:42;11.30;;;3.35;;
51459;SDS011;37534;39.772;2.718;2023-02-28T01:09:07;5.80;;;3.63;;
51459;SDS011;37534;39.772;2.718;2023-02-28T01:11:33;9.98;;;3.97;;
51459;SDS011;37534;39.772;2.718;2023-02-28T01:14:00;6.32;;;3.38;;
51459;SDS011;37534;39.772;2.718;2023-02-28T01:16:26;8.45;;;3.67;;
51459;SDS011;37534;39.772;2.718;2023-02-28T01:18:52;13.57;;;3.38;;
51459;SDS011;37534;39.772;2.718;2023-02-28T01:21:18;7.60;;;3.47;;
51459;SDS011;37534;39.772;2.718;2023-02-28T01:23:45;3.35;;;2.47;;
51459;SDS011;37534;39.772;2.718;2023-02-28T01:26:13;3.72;;;3.03;;
51459;SDS011;37534;39.772;2.718;2023-02-28T01:28:40;8.82;;;3.75;;
51459;SDS011;37534;39.772;2.718;2023-02-28T01:31:06;4.68;;;2.90;;
51459;SDS011;37534;39.772;2.718;2023-02-28T01:33:33;3.35;;;2.90;;
51459;SDS011;37534;39.772;2.718;2023-02-28T01:36:00;4.57;;;2.28;;
51459;SDS011;37534;39.772;2.718;2023-02-28T01:38:30;2.60;;;2.40;;
51459;SDS011;37534;39.772;2.718;2023-02-28T01:40:56;3.70;;;2.25;;
51459;SDS011;37534;39.772;2.718;2023-02-28T01:43:23;8.00;;;2.65;;
51459;SDS011;37534;39.772;2.718;2023-02-28T01:45:51;3.70;;;2.60;;
51459;SDS011;37534;39.772;2.718;2023-02-28T01:48:18;2.55;;;2.25;;
51459;SDS011;37534;39.772;2.718;2023-02-28T01:50:46;8.60;;;2.72;;
51459;SDS011;37534;39.772;2.718;2023-02-28T01:53:14;10.88;;;3.30;;
51459;SDS011;37534;39.772;2.718;2023-02-28T01:55:45;5.50;;;3.08;;
51459;SDS011;37534;39.772;2.718;2023-02-28T01:58:14;11.40;;;3.85;;
51459;SDS011;37534;39.772;2.718;2023-02-28T02:00:40;8.07;;;3.45;;
51459;SDS011;37534;39.772;2.718;2023-02-28T02:03:12;6.70;;;4.22;;
51459;SDS011;37534;39.772;2.718;2023-02-28T02:05:40;7.25;;;3.55;;
51459;SDS011;37534;39.772;2.718;2023-02-28T02:08:17;8.65;;;3.33;;
51459;SDS011;37534;39.772;2.718;2023-02-28T02:10:50;5.32;;;3.00;;
51459;SDS011;37534;39.772;2.718;2023-02-28T02:18:38;5.07;;;3.00;;
51459;SDS011;37534;39.772;2.718;2023-02-28T02:27:54;3.80;;;2.90;;
51459;SDS011;37534;39.772;2.718;2023-02-28T02:35:38;5.95;;;3.40;;
51459;SDS011;37534;39.772;2.718;2023-02-28T02:38:21;8.10;;;3.10;;
51459;SDS011;37534;39.772;2.718;2023-02-28T02:41:04;11.85;;;3.10;;
51459;SDS011;37534;39.772;2.718;2023-02-28T02:43:44;16.55;;;3.75;;
51459;SDS011;37534;39.772;2.718;2023-02-28T02:46:19;7.53;;;3.78;;
51459;SDS011;37534;39.772;2.718;2023-02-28T02:48:49;8.30;;;3.65;;
51459;SDS011;37534;39.772;2.718;2023-02-28T02:51:18;13.05;;;5.22;;
51459;SDS011;37534;39.772;2.718;2023-02-28T02:53:57;2.42;;;2.15;;
51459;SDS011;37534;39.772;2.718;2023-02-28T02:56:31;6.72;;;2.10;;
51459;SDS011;37534;39.772;2.718;2023-02-28T02:59:02;3.10;;;1.92;;
51459;SDS011;37534;39.772;2.718;2023-02-28T03:01:31;8.35;;;2.47;;
51459;SDS011;37534;39.772;2.718;2023-02-28T03:04:04;6.03;;;2.15;;
51459;SDS011;37534;39.772;2.718;2023-02-28T03:06:34;2.95;;;1.63;;
51459;SDS011;37534;39.772;2.718;2023-02-28T03:09:00;2.28;;;1.70;;
51459;SDS011;37534;39.772;2.718;2023-02-28T03:11:26;5.90;;;1.25;;
51459;SDS011;37534;39.772;2.718;2023-02-28T03:25:10;3.78;;;1.90;;
51459;SDS011;37534;39.772;2.718;2023-02-28T03:28:04;9.95;;;5.40;;
51459;SDS011;37534;39.772;2.718;2023-02-28T03:30:49;3.38;;;1.50;;
51459;SDS011;37534;39.772;2.718;2023-02-28T03:33:37;6.82;;;1.70;;
51459;SDS011;37534;39.772;2.718;2023-02-28T03:36:11;11.48;;;3.22;;
51459;SDS011;37534;39.772;2.718;2023-02-28T03:43:50;4.50;;;1.77;;
51459;SDS011;37534;39.772;2.718;2023-02-28T03:46:21;4.90;;;1.33;;
51459;SDS011;37534;39.772;2.718;2023-02-28T03:48:52;5.45;;;1.65;;
51459;SDS011;37534;39.772;2.718;2023-02-28T03:51:23;3.60;;;1.70;;
51459;SDS011;37534;39.772;2.718;2023-02-28T03:53:53;8.80;;;2.08;;
51459;SDS011;37534;39.772;2.718;2023-02-28T04:04:08;6.95;;;2.78;;
51459;SDS011;37534;39.772;2.718;2023-02-28T04:06:35;4.38;;;1.65;;
51459;SDS011;37534;39.772;2.718;2023-02-28T04:09:01;5.20;;;2.25;;
51459;SDS011;37534;39.772;2.718;2023-02-28T04:11:35;7.07;;;2.05;;
51459;SDS011;37534;39.772;2.718;2023-02-28T04:14:04;11.35;;;1.75;;
51459;SDS011;37534;39.772;2.718;2023-02-28T04:16:30;17.20;;;1.90;;
51459;SDS011;37534;39.772;2.718;2023-02-28T04:18:57;2.15;;;1.20;;
51459;SDS011;37534;39.772;2.718;2023-02-28T04:21:34;2.65;;;1.83;;
51459;SDS011;37534;39.772;2.718;2023-02-28T04:24:01;7.18;;;1.60;;
51459;SDS011;37534;39.772;2.718;2023-02-28T04:26:30;4.65;;;1.65;;
51459;SDS011;37534;39.772;2.718;2023-02-28T04:28:57;5.18;;;1.52;;
51459;SDS011;37534;39.772;2.718;2023-02-28T04:31:23;6.10;;;1.63;;
51459;SDS011;37534;39.772;2.718;2023-02-28T04:33:48;14.95;;;1.95;;
51459;SDS011;37534;39.772;2.718;2023-02-28T04:36:14;6.20;;;2.80;;
51459;SDS011;37534;39.772;2.718;2023-02-28T04:38:42;2.60;;;1.55;;
51459;SDS011;37534;39.772;2.718;2023-02-28T04:41:09;5.40;;;2.08;;
51459;SDS011;37534;39.772;2.718;2023-02-28T04:43:34;3.28;;;1.77;;
51459;SDS011;37534;39.772;2.718;2023-02-28T04:46:02;5.00;;;2.28;;
51459;SDS011;37534;39.772;2.718;2023-02-28T04:48:29;9.02;;;2.00;;
51459;SDS011;37534;39.772;2.718;2023-02-28T04:50:59;4.70;;;1.67;;
51459;SDS011;37534;39.772;2.718;2023-02-28T04:53:29;4.00;;;2.25;;
51459;SDS011;37534;39.772;2.718;2023-02-28T04:55:55;4.28;;;1.73;;
51459;SDS011;37534;39.772;2.718;2023-02-28T04:58:21;3.67;;;1.58;;
51459;SDS011;37534;39.772;2.718;2023-02-28T05:00:49;3.42;;;2.13;;
51459;SDS011;37534;39.772;2.718;2023-02-28T05:03:15;9.50;;;2.45;;
51459;SDS011;37534;39.772;2.718;2023-02-28T05:05:41;15.30;;;3.92;;
51459;SDS011;37534;39.772;2.718;2023-02-28T05:08:06;8.20;;;3.38;;
51459;SDS011;37534;39.772;2.718;2023-02-28T05:10:32;11.63;;;3.58;;
51459;SDS011;37534;39.772;2.718;2023-02-28T05:12:57;18.63;;;5.53;;
51459;SDS011;37534;39.772;2.718;2023-02-28T05:15:23;16.95;;;5.97;;
51459;SDS011;37534;39.772;2.718;2023-02-28T05:17:49;16.60;;;4.68;;
51459;SDS011;37534;39.772;2.718;2023-02-28T05:20:15;12.63;;;4.63;;
51459;SDS011;37534;39.772;2.718;2023-02-28T05:22:41;15.60;;;4.78;;
51459;SDS011;37534;39.772;2.718;2023-02-28T05:25:08;29.55;;;5.93;;
51459;SDS011;37534;39.772;2.718;2023-02-28T05:27:40;15.25;;;5.00;;
51459;SDS011;37534;39.772;2.718;2023-02-28T05:30:06;18.17;;;5.30;;
51459;SDS011;37534;39.772;2.718;2023-02-28T05:32:35;14.77;;;5.80;;
51459;SDS011;37534;39.772;2.718;2023-02-28T05:35:08;16.85;;;4.40;;
51459;SDS011;37534;39.772;2.718;2023-02-28T05:37:35;15.57;;;4.45;;
51459;SDS011;37534;39.772;2.718;2023-02-28T05:40:01;13.48;;;5.05;;
51459;SDS011;37534;39.772;2.718;2023-02-28T05:42:26;15.10;;;4.47;;
51459;SDS011;37534;39.772;2.718;2023-02-28T05:44:52;24.55;;;5.13;;
51459;SDS011;37534;39.772;2.718;2023-02-28T05:47:18;15.75;;;4.45;;
51459;SDS011;37534;39.772;2.718;2023-02-28T05:49:43;14.05;;;5.05;;
51459;SDS011;37534;39.772;2.718;2023-02-28T05:52:09;20.92;;;6.82;;
51459;SDS011;37534;39.772;2.718;2023-02-28T05:54:35;26.75;;;7.68;;
51459;SDS011;37534;39.772;2.718;2023-02-28T05:57:01;16.08;;;5.07;;
51459;SDS011;37534;39.772;2.718;2023-02-28T05:59:26;18.77;;;5.40;;
51459;SDS011;37534;39.772;2.718;2023-02-28T06:01:52;16.45;;;5.78;;
51459;SDS011;37534;39.772;2.718;2023-02-28T06:04:18;23.77;;;5.53;;
51459;SDS011;37534;39.772;2.718;2023-02-28T06:06:48;11.05;;;5.22;;
51459;SDS011;37534;39.772;2.718;2023-02-28T06:09:15;13.85;;;4.32;;
51459;SDS011;37534;39.772;2.718;2023-02-28T06:11:42;15.07;;;4.07;;
51459;SDS011;37534;39.772;2.718;2023-02-28T06:14:12;9.02;;;4.28;;
51459;SDS011;37534;39.772;2.718;2023-02-28T06:16:41;26.58;;;13.30;;
51459;SDS011;37534;39.772;2.718;2023-02-28T06:19:06;17.15;;;5.72;;
51459;SDS011;37534;39.772;2.718;2023-02-28T06:21:32;21.67;;;5.30;;
51459;SDS011;37534;39.772;2.718;2023-02-28T06:23:57;10.60;;;3.90;;
51459;SDS011;37534;39.772;2.718;2023-02-28T06:26:24;24.92;;;4.82;;
51459;SDS011;37534;39.772;2.718;2023-02-28T06:28:50;11.38;;;4.43;;
51459;SDS011;37534;39.772;2.718;2023-02-28T06:31:16;13.52;;;4.68;;
51459;SDS011;37534;39.772;2.718;2023-02-28T06:33:43;16.88;;;5.88;;
51459;SDS011;37534;39.772;2.718;2023-02-28T06:36:11;19.42;;;5.72;;
51459;SDS011;37534;39.772;2.718;2023-02-28T06:38:38;17.63;;;6.22;;
51459;SDS011;37534;39.772;2.718;2023-02-28T06:41:04;22.50;;;6.63;;
51459;SDS011;37534;39.772;2.718;2023-02-28T06:43:32;19.75;;;5.25;;
51459;SDS011;37534;39.772;2.718;2023-02-28T06:45:59;21.05;;;6.07;;
51459;SDS011;37534;39.772;2.718;2023-02-28T06:48:26;24.10;;;5.82;;
51459;SDS011;37534;39.772;2.718;2023-02-28T06:50:52;22.30;;;4.78;;
51459;SDS011;37534;39.772;2.718;2023-02-28T06:53:26;31.08;;;6.53;;
51459;SDS011;37534;39.772;2.718;2023-02-28T06:55:52;30.52;;;5.57;;
51459;SDS011;37534;39.772;2.718;2023-02-28T06:58:18;23.42;;;5.18;;
51459;SDS011;37534;39.772;2.718;2023-02-28T07:00:44;18.60;;;5.68;;
51459;SDS011;37534;39.772;2.718;2023-02-28T07:03:11;18.95;;;6.35;;
51459;SDS011;37534;39.772;2.718;2023-02-28T07:05:38;24.98;;;6.07;;
51459;SDS011;37534;39.772;2.718;2023-02-28T07:08:05;20.20;;;6.18;;
51459;SDS011;37534;39.772;2.718;2023-02-28T07:10:31;20.15;;;6.15;;
51459;SDS011;37534;39.772;2.718;2023-02-28T07:12:58;29.48;;;6.70;;
51459;SDS011;37534;39.772;2.718;2023-02-28T07:15:24;19.50;;;5.65;;
51459;SDS011;37534;39.772;2.718;2023-02-28T07:17:50;25.75;;;5.60;;
51459;SDS011;37534;39.772;2.718;2023-02-28T07:20:16;23.63;;;6.60;;
51459;SDS011;37534;39.772;2.718;2023-02-28T07:22:42;21.15;;;6.78;;
51459;SDS011;37534;39.772;2.718;2023-02-28T07:25:07;19.02;;;6.40;;
51459;SDS011;37534;39.772;2.718;2023-02-28T07:27:34;33.22;;;7.57;;
51459;SDS011;37534;39.772;2.718;2023-02-28T07:29:59;32.42;;;7.20;;
51459;SDS011;37534;39.772;2.718;2023-02-28T07:32:27;22.08;;;6.07;;
51459;SDS011;37534;39.772;2.718;2023-02-28T07:34:53;28.23;;;6.45;;
51459;SDS011;37534;39.772;2.718;2023-02-28T07:37:19;19.92;;;7.05;;
51459;SDS011;37534;39.772;2.718;2023-02-28T07:39:45;17.08;;;5.35;;
51459;SDS011;37534;39.772;2.718;2023-02-28T07:42:11;21.60;;;5.45;;
51459;SDS011;37534;39.772;2.718;2023-02-28T07:44:40;17.42;;;5.63;;
51459;SDS011;37534;39.772;2.718;2023-02-28T07:47:10;31.70;;;6.93;;
51459;SDS011;37534;39.772;2.718;2023-02-28T07:49:36;29.08;;;6.70;;
51459;SDS011;37534;39.772;2.718;2023-02-28T07:52:05;22.90;;;6.30;;
51459;SDS011;37534;39.772;2.718;2023-02-28T07:54:32;17.27;;;5.80;;
51459;SDS011;37534;39.772;2.718;2023-02-28T07:56:58;15.32;;;4.45;;
51459;SDS011;37534;39.772;2.718;2023-02-28T07:59:24;17.88;;;5.07;;
51459;SDS011;37534;39.772;2.718;2023-02-28T08:01:50;21.27;;;5.70;;
51459;SDS011;37534;39.772;2.718;2023-02-28T08:04:16;17.42;;;5.70;;
51459;SDS011;37534;39.772;2.718;2023-02-28T08:06:42;23.77;;;5.82;;
51459;SDS011;37534;39.772;2.718;2023-02-28T08:09:08;21.50;;;6.00;;
51459;SDS011;37534;39.772;2.718;2023-02-28T08:11:34;12.55;;;4.35;;
51459;SDS011;37534;39.772;2.718;2023-02-28T08:13:59;18.70;;;4.78;;
51459;SDS011;37534;39.772;2.718;2023-02-28T08:16:25;20.92;;;6.15;;
51459;SDS011;37534;39.772;2.718;2023-02-28T08:18:51;23.50;;;5.72;;
51459;SDS011;37534;39.772;2.718;2023-02-28T08:21:18;21.30;;;6.10;;
51459;SDS011;37534;39.772;2.718;2023-02-28T08:23:47;24.92;;;4.95;;
51459;SDS011;37534;39.772;2.718;2023-02-28T08:26:14;15.85;;;4.68;;
51459;SDS011;37534;39.772;2.718;2023-02-28T08:28:40;40.97;;;7.88;;
51459;SDS011;37534;39.772;2.718;2023-02-28T08:31:10;19.55;;;5.18;;
51459;SDS011;37534;39.772;2.718;2023-02-28T08:33:36;21.75;;;6.45;;
51459;SDS011;37534;39.772;2.718;2023-02-28T08:36:04;21.13;;;5.63;;
51459;SDS011;37534;39.772;2.718;2023-02-28T08:38:30;29.42;;;6.82;;
51459;SDS011;37534;39.772;2.718;2023-02-28T08:41:05;24.08;;;5.82;;
51459;SDS011;37534;39.772;2.718;2023-02-28T08:43:33;17.45;;;5.47;;
51459;SDS011;37534;39.772;2.718;2023-02-28T08:45:59;13.40;;;4.95;;
51459;SDS011;37534;39.772;2.718;2023-02-28T08:48:26;25.55;;;6.38;;
51459;SDS011;37534;39.772;2.718;2023-02-28T08:53:25;16.15;;;6.13;;
51459;SDS011;37534;39.772;2.718;2023-02-28T08:55:58;19.30;;;6.50;;
51459;SDS011;37534;39.772;2.718;2023-02-28T08:58:29;17.63;;;5.82;;
51459;SDS011;37534;39.772;2.718;2023-02-28T09:00:54;13.85;;;5.07;;
51459;SDS011;37534;39.772;2.718;2023-02-28T09:03:22;20.90;;;5.65;;
51459;SDS011;37534;39.772;2.718;2023-02-28T09:05:56;39.88;;;6.47;;
51459;SDS011;37534;39.772;2.718;2023-02-28T09:08:24;30.60;;;7.45;;
51459;SDS011;37534;39.772;2.718;2023-02-28T09:10:50;25.30;;;6.50;;
51459;SDS011;37534;39.772;2.718;2023-02-28T09:13:16;24.92;;;6.72;;
51459;SDS011;37534;39.772;2.718;2023-02-28T09:15:43;35.20;;;6.93;;
51459;SDS011;37534;39.772;2.718;2023-02-28T09:18:10;22.35;;;6.53;;
51459;SDS011;37534;39.772;2.718;2023-02-28T09:20:39;17.38;;;5.95;;
51459;SDS011;37534;39.772;2.718;2023-02-28T09:23:06;15.00;;;5.72;;
51459;SDS011;37534;39.772;2.718;2023-02-28T09:25:33;24.30;;;8.00;;
51459;SDS011;37534;39.772;2.718;2023-02-28T09:28:00;21.83;;;7.35;;
51459;SDS011;37534;39.772;2.718;2023-02-28T09:30:26;39.05;;;6.78;;
51459;SDS011;37534;39.772;2.718;2023-02-28T09:32:52;18.27;;;4.32;;
51459;SDS011;37534;39.772;2.718;2023-02-28T09:35:21;17.58;;;4.85;;
51459;SDS011;37534;39.772;2.718;2023-02-28T09:37:49;23.60;;;5.90;;
51459;SDS011;37534;39.772;2.718;2023-02-28T09:40:17;21.33;;;5.78;;
51459;SDS011;37534;39.772;2.718;2023-02-28T09:42:47;21.67;;;5.28;;
51459;SDS011;37534;39.772;2.718;2023-02-28T09:45:30;30.30;;;7.60;;
51459;SDS011;37534;39.772;2.718;2023-02-28T09:48:11;19.85;;;7.10;;
51459;SDS011;37534;39.772;2.718;2023-02-28T09:50:45;26.25;;;7.68;;
51459;SDS011;37534;39.772;2.718;2023-02-28T09:56:11;32.88;;;7.47;;
51459;SDS011;37534;39.772;2.718;2023-02-28T10:01:50;22.10;;;6.65;;
51459;SDS011;37534;39.772;2.718;2023-02-28T10:04:45;19.27;;;7.32;;
51459;SDS011;37534;39.772;2.718;2023-02-28T10:10:02;32.13;;;6.78;;
51459;SDS011;37534;39.772;2.718;2023-02-28T10:12:39;19.42;;;6.88;;
51459;SDS011;37534;39.772;2.718;2023-02-28T10:15:12;17.75;;;5.80;;
51459;SDS011;37534;39.772;2.718;2023-02-28T10:17:41;22.63;;;7.80;;
51459;SDS011;37534;39.772;2.718;2023-02-28T10:20:14;28.00;;;7.70;;
51459;SDS011;37534;39.772;2.718;2023-02-28T10:22:58;17.63;;;6.30;;
51459;SDS011;37534;39.772;2.718;2023-02-28T10:25:38;19.88;;;6.22;;
51459;SDS011;37534;39.772;2.718;2023-02-28T10:28:14;30.00;;;6.93;;
51459;SDS011;37534;39.772;2.718;2023-02-28T10:30:46;19.05;;;5.75;;
51459;SDS011;37534;39.772;2.718;2023-02-28T10:33:21;25.30;;;8.02;;
51459;SDS011;37534;39.772;2.718;2023-02-28T10:35:53;21.83;;;7.55;;
51459;SDS011;37534;39.772;2.718;2023-02-28T10:38:20;24.83;;;6.85;;
51459;SDS011;37534;39.772;2.718;2023-02-28T10:40:48;26.83;;;8.32;;
51459;SDS011;37534;39.772;2.718;2023-02-28T10:45:40;32.55;;;9.70;;
51459;SDS011;37534;39.772;2.718;2023-02-28T10:48:33;33.83;;;7.90;;
51459;SDS011;37534;39.772;2.718;2023-02-28T10:51:12;21.50;;;6.45;;
51459;SDS011;37534;39.772;2.718;2023-02-28T10:53:47;29.38;;;6.43;;
51459;SDS011;37534;39.772;2.718;2023-02-28T10:56:21;25.55;;;6.55;;
51459;SDS011;37534;39.772;2.718;2023-02-28T10:58:58;24.15;;;6.95;;
51459;SDS011;37534;39.772;2.718;2023-02-28T11:03:55;21.17;;;7.07;;
51459;SDS011;37534;39.772;2.718;2023-02-28T11:06:23;25.40;;;7.40;;
51459;SDS011;37534;39.772;2.718;2023-02-28T11:09:01;22.88;;;7.40;;
51459;SDS011;37534;39.772;2.718;2023-02-28T11:11:31;30.60;;;7.65;;
51459;SDS011;37534;39.772;2.718;2023-02-28T11:14:14;20.55;;;6.40;;
51459;SDS011;37534;39.772;2.718;2023-02-28T11:16:47;42.90;;;8.80;;
51459;SDS011;37534;39.772;2.718;2023-02-28T11:19:22;19.20;;;7.82;;
51459;SDS011;37534;39.772;2.718;2023-02-28T11:21:53;27.05;;;6.93;;
51459;SDS011;37534;39.772;2.718;2023-02-28T11:24:40;24.85;;;6.40;;
51459;SDS011;37534;39.772;2.718;2023-02-28T11:27:25;18.52;;;6.75;;
51459;SDS011;37534;39.772;2.718;2023-02-28T11:29:51;14.80;;;6.50;;
51459;SDS011;37534;39.772;2.718;2023-02-28T11:32:19;12.73;;;4.38;;
51459;SDS011;37534;39.772;2.718;2023-02-28T11:34:46;29.13;;;8.25;;
51459;SDS011;37534;39.772;2.718;2023-02-28T11:37:27;18.90;;;6.25;;
51459;SDS011;37534;39.772;2.718;2023-02-28T11:39:55;28.95;;;8.13;;
51459;SDS011;37534;39.772;2.718;2023-02-28T11:56:31;26.08;;;9.90;;
51459;SDS011;37534;39.772;2.718;2023-02-28T12:21:41;29.80;;;15.13;;
51459;SDS011;37534;39.772;2.718;2023-02-28T12:26:47;31.85;;;7.72;;
51459;SDS011;37534;39.772;2.718;2023-02-28T12:29:22;28.00;;;9.20;;
51459;SDS011;37534;39.772;2.718;2023-02-28T12:32:18;32.50;;;8.30;;
51459;SDS011;37534;39.772;2.718;2023-02-28T12:34:58;25.80;;;6.80;;
51459;SDS011;37534;39.772;2.718;2023-02-28T12:37:51;20.45;;;6.65;;
51459;SDS011;37534;39.772;2.718;2023-02-28T12:40:29;33.85;;;6.90;;
51459;SDS011;37534;39.772;2.718;2023-02-28T12:48:11;26.92;;;8.48;;
51459;SDS011;37534;39.772;2.718;2023-02-28T12:50:54;20.50;;;8.15;;
51459;SDS011;37534;39.772;2.718;2023-02-28T12:53:23;30.65;;;7.20;;
51459;SDS011;37534;39.772;2.718;2023-02-28T12:58:56;32.90;;;6.40;;
51459;SDS011;37534;39.772;2.718;2023-02-28T13:01:51;24.08;;;6.22;;
51459;SDS011;37534;39.772;2.718;2023-02-28T13:07:32;17.63;;;6.70;;
51459;SDS011;37534;39.772;2.718;2023-02-28T13:10:24;23.73;;;7.57;;
51459;SDS011;37534;39.772;2.718;2023-02-28T13:12:51;18.33;;;6.82;;
51459;SDS011;37534;39.772;2.718;2023-02-28T13:15:25;18.38;;;6.65;;
51459;SDS011;37534;39.772;2.718;2023-02-28T13:18:00;26.27;;;7.30;;
51459;SDS011;37534;39.772;2.718;2023-02-28T13:20:33;32.53;;;6.07;;
51459;SDS011;37534;39.772;2.718;2023-02-28T13:23:02;28.80;;;8.82;;
51459;SDS011;37534;39.772;2.718;2023-02-28T13:28:02;19.30;;;7.38;;
51459;SDS011;37534;39.772;2.718;2023-02-28T13:33:22;21.98;;;7.18;;
51459;SDS011;37534;39.772;2.718;2023-02-28T13:36:00;21.50;;;6.25;;
51459;SDS011;37534;39.772;2.718;2023-02-28T13:38:34;20.55;;;6.63;;
51459;SDS011;37534;39.772;2.718;2023-02-28T13:44:14;24.75;;;7.65;;
51459;SDS011;37534;39.772;2.718;2023-02-28T14:05:32;20.75;;;5.60;;
51459;SDS011;37534;39.772;2.718;2023-02-28T14:08:03;23.67;;;6.45;;
51459;SDS011;37534;39.772;2.718;2023-02-28T14:10:36;17.55;;;6.28;;
51459;SDS011;37534;39.772;2.718;2023-02-28T14:13:12;26.25;;;7.07;;
51459;SDS011;37534;39.772;2.718;2023-02-28T14:18:27;33.65;;;8.48;;
51459;SDS011;37534;39.772;2.718;2023-02-28T14:24:09;19.27;;;6.47;;
51459;SDS011;37534;39.772;2.718;2023-02-28T14:32:22;11.77;;;4.50;;
51459;SDS011;37534;39.772;2.718;2023-02-28T14:37:59;10.75;;;4.32;;
51459;SDS011;37534;39.772;2.718;2023-02-28T14:40:35;23.58;;;9.43;;
51459;SDS011;37534;39.772;2.718;2023-02-28T14:43:04;18.98;;;8.15;;
51459;SDS011;37534;39.772;2.718;2023-02-28T14:45:35;17.45;;;6.38;;
51459;SDS011;37534;39.772;2.718;2023-02-28T14:48:02;22.85;;;5.90;;
51459;SDS011;37534;39.772;2.718;2023-02-28T14:50:34;20.33;;;7.50;;
51459;SDS011;37534;39.772;2.718;2023-02-28T14:53:01;29.30;;;7.22;;
51459;SDS011;37534;39.772;2.718;2023-02-28T14:55:29;16.27;;;7.55;;
51459;SDS011;37534;39.772;2.718;2023-02-28T14:57:59;22.95;;;8.23;;
51459;SDS011;37534;39.772;2.718;2023-02-28T15:00:33;21.65;;;5.20;;
51459;SDS011;37534;39.772;2.718;2023-02-28T15:03:11;22.90;;;5.28;;
51459;SDS011;37534;39.772;2.718;2023-02-28T15:05:50;16.27;;;7.07;;
51459;SDS011;37534;39.772;2.718;2023-02-28T15:08:21;17.42;;;6.30;;
51459;SDS011;37534;39.772;2.718;2023-02-28T15:10:54;21.85;;;7.97;;
51459;SDS011;37534;39.772;2.718;2023-02-28T15:13:47;15.07;;;8.50;;
51459;SDS011;37534;39.772;2.718;2023-02-28T15:16:14;15.40;;;7.18;;
51459;SDS011;37534;39.772;2.718;2023-02-28T15:18:48;18.48;;;4.72;;
51459;SDS011;37534;39.772;2.718;2023-02-28T15:21:21;17.33;;;5.35;;
51459;SDS011;37534;39.772;2.718;2023-02-28T15:29:01;53.22;;;25.83;;
51459;SDS011;37534;39.772;2.718;2023-02-28T15:31:40;25.25;;;11.18;;
51459;SDS011;37534;39.772;2.718;2023-02-28T15:34:20;10.23;;;5.72;;
51459;SDS011;37534;39.772;2.718;2023-02-28T15:37:52;13.85;;;6.30;;
51459;SDS011;37534;39.772;2.718;2023-02-28T15:40:11;29.20;;;11.25;;
51459;SDS011;37534;39.772;2.718;2023-02-28T15:42:41;27.52;;;8.05;;
51459;SDS011;37534;39.772;2.718;2023-02-28T15:47:57;18.13;;;7.03;;
51459;SDS011;37534;39.772;2.718;2023-02-28T15:50:23;12.65;;;5.50;;
51459;SDS011;37534;39.772;2.718;2023-02-28T15:52:49;18.65;;;7.18;;
51459;SDS011;37534;39.772;2.718;2023-02-28T15:55:19;13.07;;;6.70;;
51459;SDS011;37534;39.772;2.718;2023-02-28T15:57:48;10.73;;;6.28;;
51459;SDS011;37534;39.772;2.718;2023-02-28T16:00:21;11.18;;;4.78;;
51459;SDS011;37534;39.772;2.718;2023-02-28T16:02:48;20.33;;;7.50;;
51459;SDS011;37534;39.772;2.718;2023-02-28T16:05:22;24.23;;;7.25;;
51459;SDS011;37534;39.772;2.718;2023-02-28T16:07:53;14.45;;;6.22;;
51459;SDS011;37534;39.772;2.718;2023-02-28T16:10:20;11.23;;;5.93;;
51459;SDS011;37534;39.772;2.718;2023-02-28T16:12:50;16.50;;;6.65;;
51459;SDS011;37534;39.772;2.718;2023-02-28T16:15:26;11.75;;;5.47;;
51459;SDS011;37534;39.772;2.718;2023-02-28T16:17:54;10.25;;;4.75;;
51459;SDS011;37534;39.772;2.718;2023-02-28T16:20:24;18.80;;;7.32;;
51459;SDS011;37534;39.772;2.718;2023-02-28T16:22:51;8.48;;;3.92;;
51459;SDS011;37534;39.772;2.718;2023-02-28T16:25:18;19.05;;;5.00;;
51459;SDS011;37534;39.772;2.718;2023-02-28T16:27:48;13.25;;;5.47;;
51459;SDS011;37534;39.772;2.718;2023-02-28T16:30:22;11.00;;;4.65;;
51459;SDS011;37534;39.772;2.718;2023-02-28T16:32:50;19.80;;;4.07;;
51459;SDS011;37534;39.772;2.718;2023-02-28T16:35:16;12.35;;;4.45;;
51459;SDS011;37534;39.772;2.718;2023-02-28T16:37:43;16.23;;;6.85;;
51459;SDS011;37534;39.772;2.718;2023-02-28T16:40:13;15.85;;;6.43;;
51459;SDS011;37534;39.772;2.718;2023-02-28T16:42:45;13.07;;;5.13;;
51459;SDS011;37534;39.772;2.718;2023-02-28T16:45:20;10.52;;;4.70;;
51459;SDS011;37534;39.772;2.718;2023-02-28T16:47:48;12.55;;;3.67;;
51459;SDS011;37534;39.772;2.718;2023-02-28T16:50:24;9.57;;;4.88;;
51459;SDS011;37534;39.772;2.718;2023-02-28T16:52:54;17.05;;;6.10;;
51459;SDS011;37534;39.772;2.718;2023-02-28T16:55:22;21.83;;;7.10;;
51459;SDS011;37534;39.772;2.718;2023-02-28T16:57:59;25.77;;;9.18;;
51459;SDS011;37534;39.772;2.718;2023-02-28T17:00:27;22.55;;;8.88;;
51459;SDS011;37534;39.772;2.718;2023-02-28T17:02:53;27.17;;;7.95;;
51459;SDS011;37534;39.772;2.718;2023-02-28T17:05:20;13.98;;;4.78;;
51459;SDS011;37534;39.772;2.718;2023-02-28T17:07:47;13.63;;;5.20;;
51459;SDS011;37534;39.772;2.718;2023-02-28T17:10:15;12.45;;;5.72;;
51459;SDS011;37534;39.772;2.718;2023-02-28T17:12:40;12.25;;;4.97;;
51459;SDS011;37534;39.772;2.718;2023-02-28T17:15:06;16.60;;;5.45;;
51459;SDS011;37534;39.772;2.718;2023-02-28T17:17:34;14.65;;;5.35;;
51459;SDS011;37534;39.772;2.718;2023-02-28T17:20:00;15.50;;;5.32;;
51459;SDS011;37534;39.772;2.718;2023-02-28T17:22:25;30.50;;;9.90;;
51459;SDS011;37534;39.772;2.718;2023-02-28T17:24:51;17.55;;;5.15;;
51459;SDS011;37534;39.772;2.718;2023-02-28T17:27:20;30.50;;;6.80;;
51459;SDS011;37534;39.772;2.718;2023-02-28T17:29:47;24.63;;;6.95;;
51459;SDS011;37534;39.772;2.718;2023-02-28T17:32:12;23.17;;;9.73;;